Terminal Aerodrome Forecast
Issued by NWS

Home | Current Version | Previous Version | Text Only | Print | Product List | Glossary On
Versions: 1 2 3 4 5 6 7 8 9 10 11 12 13 14 15 16 17 18 19 20 21
530
FTUS41 KILN 201342 AAA
TAFLCK
TAF AMD
KLCK 201342Z 2014/2112 22005KT P6SM BKN050
     FM210000 VRB04KT P6SM SCT080
     FM210700 00000KT 5SM BR SCT250
     FM210900 VRB03KT 2SM BR SCT250=

USA.gov is the U.S. government's official web portal to all federal, state and local government web resources and services.